createdAt,value
2022-11-17T00:01:23.444Z,10.30
2022-11-17T00:03:51.956Z,10.20
2022-11-17T00:06:20.747Z,10.30
2022-11-17T00:08:50.160Z,10.30
2022-11-17T00:11:18.030Z,10.30
2022-11-17T00:14:03.454Z,10.30
2022-11-17T00:16:31.287Z,10.40
2022-11-17T00:19:16.667Z,10.30
2022-11-17T00:21:44.349Z,10.30
2022-11-17T00:24:16.421Z,10.30
2022-11-17T00:26:58.056Z,10.40
2022-11-17T00:29:25.748Z,10.40
2022-11-17T00:32:10.802Z,10.30
2022-11-17T00:34:38.494Z,10.20
2022-11-17T00:37:06.791Z,10.30
2022-11-17T00:39:35.842Z,10.20
2022-11-17T00:42:03.502Z,10.30
2022-11-17T00:44:31.538Z,10.30
2022-11-17T00:46:59.371Z,10.30
2022-11-17T00:49:27.057Z,10.40
2022-11-17T00:51:55.457Z,10.30
2022-11-17T00:54:23.520Z,10.20
2022-11-17T00:56:52.556Z,10.10
2022-11-17T00:59:20.245Z,10.20
2022-11-17T01:01:48.031Z,10.30
2022-11-17T01:04:16.375Z,10.40
2022-11-17T01:06:44.876Z,10.30
2022-11-17T01:09:13.404Z,10.30
2022-11-17T01:11:41.636Z,10.20
2022-11-17T01:14:12.812Z,10.00
2022-11-17T01:16:40.593Z,10.10
2022-11-17T01:19:08.622Z,10.00
2022-11-17T01:21:36.395Z,10.00
2022-11-17T01:24:04.524Z,9.90
2022-11-17T01:26:32.896Z,9.90
2022-11-17T01:29:00.742Z,9.90
2022-11-17T01:31:30.621Z,9.80
2022-11-17T01:33:58.335Z,9.90
2022-11-17T01:36:27.557Z,9.80
2022-11-17T01:38:55.575Z,9.80
2022-11-17T01:41:24.391Z,9.80
2022-11-17T01:43:53.074Z,9.80
2022-11-17T01:46:26.751Z,9.90
2022-11-17T01:48:59.331Z,9.90
2022-11-17T01:51:27.706Z,9.90
2022-11-17T01:53:55.430Z,9.80
2022-11-17T01:56:25.674Z,9.80
2022-11-17T01:58:55.984Z,9.90
2022-11-17T02:01:23.721Z,9.90
2022-11-17T02:03:51.900Z,9.80
2022-11-17T02:06:24.251Z,9.90
2022-11-17T02:08:53.470Z,9.70
2022-11-17T02:11:22.294Z,9.70
2022-11-17T02:13:50.689Z,9.90
2022-11-17T02:16:18.566Z,9.90
2022-11-17T02:18:47.150Z,10.00
2022-11-17T02:21:29.974Z,10.00
2022-11-17T02:24:08.784Z,10.10
2022-11-17T02:27:03.235Z,10.20
2022-11-17T02:29:37.008Z,10.40
2022-11-17T02:32:06.549Z,10.20
2022-11-17T02:34:39.377Z,10.00
2022-11-17T02:37:10.921Z,9.80
2022-11-17T02:39:41.340Z,9.80
2022-11-17T02:42:10.922Z,9.90
2022-11-17T02:44:42.280Z,9.90
2022-11-17T02:47:11.817Z,9.80
2022-11-17T02:49:41.046Z,9.70
2022-11-17T02:52:09.283Z,9.80
2022-11-17T02:54:37.159Z,9.80
2022-11-17T02:57:05.051Z,9.80
2022-11-17T02:59:34.980Z,9.80
2022-11-17T03:02:23.417Z,9.60
2022-11-17T03:05:01.007Z,9.60
2022-11-17T03:07:37.355Z,9.60
2022-11-17T03:10:12.507Z,9.60
2022-11-17T03:12:43.921Z,9.50
2022-11-17T03:15:14.628Z,9.50
2022-11-17T03:17:47.382Z,9.50
2022-11-17T03:20:20.504Z,9.40
2022-11-17T03:22:52.313Z,9.40
2022-11-17T03:25:21.596Z,9.50
2022-11-17T03:27:51.706Z,9.60
2022-11-17T03:30:20.850Z,9.60
2022-11-17T03:32:50.443Z,9.60
2022-11-17T03:35:21.298Z,9.50
2022-11-17T03:37:52.588Z,9.70
2022-11-17T03:40:22.468Z,9.80
2022-11-17T03:42:53.955Z,9.90
2022-11-17T03:45:23.274Z,9.80
2022-11-17T03:47:52.388Z,9.60
2022-11-17T03:50:23.283Z,9.60
2022-11-17T03:52:51.100Z,9.40
2022-11-17T03:55:18.995Z,9.40
2022-11-17T03:57:51.157Z,9.40
2022-11-17T04:00:19.434Z,9.40
2022-11-17T04:02:48.330Z,9.40
2022-11-17T04:05:17.072Z,9.30
2022-11-17T04:07:46.800Z,9.40
2022-11-17T04:10:15.344Z,9.40
2022-11-17T04:13:00.844Z,9.50
2022-11-17T04:15:45.813Z,9.60
2022-11-17T04:18:13.886Z,9.60
2022-11-17T04:20:42.016Z,9.70
2022-11-17T04:23:13.927Z,9.60
2022-11-17T04:25:59.962Z,9.50
2022-11-17T04:28:40.436Z,9.50
2022-11-17T04:31:09.693Z,9.60
2022-11-17T04:33:38.291Z,9.70
2022-11-17T04:36:06.681Z,9.70
2022-11-17T04:38:35.797Z,9.70
2022-11-17T04:41:22.466Z,9.80
2022-11-17T04:43:50.394Z,9.80
2022-11-17T04:46:18.168Z,10.10
2022-11-17T04:48:45.906Z,10.10
2022-11-17T04:51:13.582Z,10.20
2022-11-17T04:53:43.045Z,10.30
2022-11-17T04:56:11.232Z,10.30
2022-11-17T04:58:38.922Z,10.40
2022-11-17T05:01:17.146Z,10.60
2022-11-17T05:03:45.415Z,10.60
2022-11-17T05:06:15.524Z,10.70
2022-11-17T05:08:44.546Z,10.80
2022-11-17T05:11:30.634Z,10.80
2022-11-17T05:13:58.535Z,10.90
2022-11-17T05:16:44.146Z,11.00
2022-11-17T05:19:13.386Z,11.10
2022-11-17T05:21:41.074Z,10.90
2022-11-17T05:24:09.696Z,10.90
2022-11-17T05:26:38.356Z,11.00
2022-11-17T05:29:06.829Z,11.00
2022-11-17T05:31:34.962Z,11.00
2022-11-17T05:34:03.004Z,11.00
2022-11-17T05:36:30.924Z,10.90
2022-11-17T05:38:58.593Z,11.00
2022-11-17T05:41:28.684Z,11.10
2022-11-17T05:43:57.051Z,11.10
2022-11-17T05:46:25.155Z,11.10
2022-11-17T05:48:53.882Z,11.20
2022-11-17T05:51:22.475Z,11.30
2022-11-17T05:53:50.617Z,11.30
2022-11-17T05:56:32.156Z,11.40
2022-11-17T05:59:02.740Z,11.40
2022-11-17T06:01:30.881Z,11.50
2022-11-17T06:04:01.497Z,11.60
2022-11-17T06:06:29.798Z,11.50
2022-11-17T06:08:57.563Z,11.50
2022-11-17T06:11:25.278Z,11.60
2022-11-17T06:13:54.374Z,11.60
2022-11-17T06:16:23.896Z,11.50
2022-11-17T06:18:54.609Z,11.50
2022-11-17T06:21:22.424Z,11.50
2022-11-17T06:23:50.545Z,11.30
2022-11-17T06:26:18.239Z,11.40
2022-11-17T06:28:48.434Z,11.30
2022-11-17T06:31:17.863Z,11.40
2022-11-17T06:33:46.139Z,11.30
2022-11-17T06:36:14.251Z,11.30
2022-11-17T06:38:41.982Z,11.20
2022-11-17T06:41:11.999Z,11.10
2022-11-17T06:43:40.025Z,11.00
2022-11-17T06:46:07.730Z,10.80
2022-11-17T06:48:37.102Z,10.70
2022-11-17T06:51:05.767Z,10.60
2022-11-17T06:53:34.571Z,10.50
2022-11-17T06:56:04.914Z,10.50
2022-11-17T06:58:33.172Z,10.40
2022-11-17T07:01:08.110Z,10.40
2022-11-17T07:03:38.200Z,10.30
2022-11-17T07:06:06.938Z,10.20
2022-11-17T07:08:35.587Z,10.20
2022-11-17T07:11:04.011Z,10.20
2022-11-17T07:13:33.196Z,10.20
2022-11-17T07:16:04.848Z,10.20
2022-11-17T07:18:32.849Z,10.10
2022-11-17T07:21:06.014Z,10.20
2022-11-17T07:23:34.157Z,10.20
2022-11-17T07:26:02.072Z,10.20
2022-11-17T07:28:30.118Z,10.20
2022-11-17T07:30:57.786Z,10.20
2022-11-17T07:33:25.441Z,10.30
2022-11-17T07:35:53.133Z,10.30
2022-11-17T07:38:22.165Z,10.30
2022-11-17T07:40:49.831Z,10.30
2022-11-17T07:43:17.651Z,10.30
2022-11-17T07:45:45.456Z,10.40
2022-11-17T07:48:13.117Z,10.40
2022-11-17T07:50:41.518Z,10.50
2022-11-17T07:53:09.312Z,10.50
2022-11-17T07:55:38.296Z,10.60
2022-11-17T07:58:05.975Z,10.70
2022-11-17T08:00:34.479Z,10.90
2022-11-17T08:03:03.551Z,11.10
2022-11-17T08:05:32.140Z,11.10
2022-11-17T08:08:00.305Z,11.10
2022-11-17T08:10:31.134Z,11.10
2022-11-17T08:13:00.987Z,11.10
2022-11-17T08:15:29.470Z,11.00
2022-11-17T08:17:57.925Z,10.90
2022-11-17T08:20:25.980Z,10.90
2022-11-17T08:22:53.948Z,10.80
2022-11-17T08:25:22.136Z,10.80
2022-11-17T08:27:52.037Z,10.80
2022-11-17T08:30:21.318Z,10.80
2022-11-17T08:32:50.144Z,10.80
2022-11-17T08:35:18.057Z,10.90
2022-11-17T08:37:45.889Z,10.90
2022-11-17T08:40:14.081Z,10.90
2022-11-17T08:42:41.783Z,10.90
2022-11-17T08:45:10.507Z,10.90
2022-11-17T08:47:39.822Z,10.90
2022-11-17T08:50:08.114Z,11.00
2022-11-17T08:52:35.892Z,11.00
2022-11-17T08:55:05.548Z,11.00
2022-11-17T08:57:33.781Z,11.00
2022-11-17T09:00:02.045Z,11.00
2022-11-17T09:02:29.860Z,11.00
2022-11-17T09:04:58.899Z,11.00
2022-11-17T09:07:29.445Z,11.00
2022-11-17T09:10:01.273Z,11.00
2022-11-17T09:12:28.949Z,11.10
2022-11-17T09:14:56.673Z,11.10
2022-11-17T09:17:24.416Z,11.10
2022-11-17T09:19:52.139Z,11.20
2022-11-17T09:22:21.185Z,11.20
2022-11-17T09:24:48.896Z,11.20
2022-11-17T09:27:16.765Z,11.20
2022-11-17T09:29:44.495Z,11.20
2022-11-17T09:32:13.392Z,11.50
2022-11-17T09:34:41.096Z,11.70
2022-11-17T09:37:08.807Z,12.00
2022-11-17T09:39:37.976Z,12.30
2022-11-17T09:42:05.860Z,12.30
2022-11-17T09:44:39.724Z,12.10
2022-11-17T09:47:11.478Z,12.00
2022-11-17T09:49:42.406Z,12.00
2022-11-17T09:52:14.872Z,12.30
2022-11-17T09:54:46.250Z,12.40
2022-11-17T09:57:20.059Z,12.50
2022-11-17T09:59:50.329Z,12.60
2022-11-17T10:02:18.052Z,12.70
2022-11-17T10:04:45.840Z,12.80
2022-11-17T10:07:13.589Z,12.90
2022-11-17T10:09:42.803Z,12.90
2022-11-17T10:12:17.049Z,13.00
2022-11-17T10:14:44.736Z,13.30
2022-11-17T10:17:13.547Z,13.60
2022-11-17T10:19:41.472Z,13.40
2022-11-17T10:22:20.404Z,13.20
2022-11-17T10:24:50.470Z,13.00
2022-11-17T10:27:23.874Z,13.00
2022-11-17T10:29:59.029Z,13.00
2022-11-17T10:32:26.991Z,12.80
2022-11-17T10:34:55.140Z,12.80
2022-11-17T10:37:24.922Z,12.70
2022-11-17T10:40:03.252Z,12.70
2022-11-17T10:42:32.464Z,12.70
2022-11-17T10:45:01.542Z,12.60
2022-11-17T10:47:30.618Z,12.70
2022-11-17T10:50:13.530Z,12.70
2022-11-17T10:52:41.246Z,12.70
2022-11-17T10:55:17.104Z,12.80
2022-11-17T10:57:47.977Z,12.70
2022-11-17T11:00:23.890Z,12.80
2022-11-17T11:03:03.121Z,12.80
2022-11-17T11:05:30.950Z,12.80
2022-11-17T11:08:09.227Z,12.80
2022-11-17T11:10:37.217Z,12.70
2022-11-17T11:13:10.179Z,12.70
2022-11-17T11:15:38.013Z,12.50
2022-11-17T11:18:13.057Z,12.50
2022-11-17T11:20:44.650Z,12.50
2022-11-17T11:23:17.318Z,12.30
2022-11-17T11:25:49.107Z,12.20
2022-11-17T11:28:29.135Z,12.20
2022-11-17T11:31:00.357Z,12.00
2022-11-17T11:33:34.256Z,12.00
2022-11-17T11:36:07.605Z,11.90
2022-11-17T11:38:40.844Z,11.90
2022-11-17T11:41:18.033Z,12.00
2022-11-17T11:43:50.268Z,12.00
2022-11-17T11:46:19.018Z,12.00
2022-11-17T11:48:47.961Z,12.00
2022-11-17T11:51:17.301Z,12.10
2022-11-17T11:53:48.350Z,12.20
2022-11-17T11:56:18.382Z,12.20
2022-11-17T11:58:50.224Z,12.30
2022-11-17T12:01:19.718Z,12.30
2022-11-17T12:03:50.607Z,12.30
2022-11-17T12:06:39.983Z,12.40
2022-11-17T12:09:14.480Z,12.50
2022-11-17T12:12:01.141Z,12.60
2022-11-17T12:14:31.157Z,12.60
2022-11-17T12:17:04.300Z,12.60
2022-11-17T12:19:48.234Z,12.70
2022-11-17T12:22:20.562Z,12.80
2022-11-17T12:24:48.349Z,12.90
2022-11-17T12:27:49.556Z,12.90
2022-11-17T12:30:32.544Z,12.90
2022-11-17T12:33:01.864Z,12.90
2022-11-17T12:35:30.510Z,12.80
2022-11-17T12:38:17.083Z,12.80
2022-11-17T12:40:45.549Z,12.80
2022-11-17T12:43:20.402Z,12.70
2022-11-17T12:45:55.466Z,12.60
2022-11-17T12:48:34.670Z,12.40
2022-11-17T12:51:05.923Z,12.40
2022-11-17T12:53:42.224Z,12.30
2022-11-17T12:56:21.981Z,12.30
2022-11-17T12:58:54.349Z,12.30
2022-11-17T13:01:26.110Z,12.30
2022-11-17T13:03:56.558Z,12.30
2022-11-17T13:06:39.754Z,12.30
2022-11-17T13:09:08.567Z,12.40
2022-11-17T13:11:36.460Z,12.40
2022-11-17T13:14:07.805Z,12.50
2022-11-17T13:16:36.074Z,12.50
2022-11-17T13:19:05.370Z,12.40
2022-11-17T13:21:33.669Z,12.40
2022-11-17T13:24:01.521Z,12.40
2022-11-17T13:26:31.433Z,12.40
2022-11-17T13:29:03.638Z,12.40
2022-11-17T13:31:31.374Z,12.30
2022-11-17T13:34:05.316Z,12.30
2022-11-17T13:36:34.984Z,12.30
2022-11-17T13:39:03.138Z,12.40
2022-11-17T13:41:34.693Z,12.40
2022-11-17T13:44:02.489Z,12.40
2022-11-17T13:46:30.174Z,12.30
2022-11-17T13:48:57.987Z,12.30
2022-11-17T13:51:28.785Z,12.30
2022-11-17T13:54:00.039Z,12.30
2022-11-17T13:56:30.808Z,12.30
2022-11-17T13:58:59.491Z,12.30
2022-11-17T14:01:29.147Z,12.30
2022-11-17T14:04:15.327Z,12.30
2022-11-17T14:06:54.757Z,12.30
2022-11-17T14:09:24.506Z,12.30
2022-11-17T14:11:52.194Z,12.20
2022-11-17T14:14:24.617Z,12.20
2022-11-17T14:16:53.142Z,12.20
2022-11-17T14:19:30.247Z,12.20
2022-11-17T14:21:59.320Z,12.20
2022-11-17T14:24:28.435Z,12.10
2022-11-17T14:26:56.212Z,12.10
2022-11-17T14:29:23.880Z,12.10
2022-11-17T14:31:51.560Z,12.10
2022-11-17T14:34:19.351Z,12.00
2022-11-17T14:36:47.714Z,11.90
2022-11-17T14:39:16.394Z,11.60
2022-11-17T14:41:46.926Z,11.50
2022-11-17T14:44:14.963Z,11.20
2022-11-17T14:46:42.696Z,11.10
2022-11-17T14:49:10.869Z,10.90
2022-11-17T14:51:38.850Z,10.80
2022-11-17T14:54:06.554Z,10.80
2022-11-17T14:56:34.816Z,10.80
2022-11-17T14:59:03.945Z,10.70
2022-11-17T15:01:33.525Z,10.80
2022-11-17T15:04:15.721Z,10.80
2022-11-17T15:06:50.158Z,10.90
2022-11-17T15:09:17.894Z,10.90
2022-11-17T15:11:45.589Z,10.90
2022-11-17T15:14:15.038Z,10.90
2022-11-17T15:16:43.098Z,10.90
2022-11-17T15:19:12.107Z,11.00
2022-11-17T15:21:39.833Z,10.90
2022-11-17T15:24:09.118Z,10.90
2022-11-17T15:26:36.954Z,10.90
2022-11-17T15:29:04.832Z,10.90
2022-11-17T15:31:33.878Z,10.80
2022-11-17T15:34:02.006Z,10.80
2022-11-17T15:36:29.715Z,10.80
2022-11-17T15:38:57.512Z,10.80
2022-11-17T15:41:28.463Z,10.70
2022-11-17T15:43:59.118Z,10.70
2022-11-17T15:46:26.805Z,10.60
2022-11-17T15:48:55.993Z,10.60
2022-11-17T15:51:24.717Z,10.60
2022-11-17T15:53:53.470Z,10.50
2022-11-17T15:56:21.803Z,10.50
2022-11-17T15:58:50.276Z,10.50
2022-11-17T16:01:29.151Z,10.50
2022-11-17T16:03:59.785Z,10.40
2022-11-17T16:06:27.617Z,10.40
2022-11-17T16:08:55.647Z,10.40
2022-11-17T16:11:23.612Z,10.40
2022-11-17T16:13:53.013Z,10.30
2022-11-17T16:16:20.913Z,10.40
2022-11-17T16:18:48.758Z,10.30
2022-11-17T16:21:17.817Z,10.30
2022-11-17T16:23:46.314Z,10.30
2022-11-17T16:26:14.732Z,10.30
2022-11-17T16:28:42.737Z,10.30
2022-11-17T16:31:14.520Z,10.20
2022-11-17T16:33:47.122Z,10.20
2022-11-17T16:36:14.827Z,10.20
2022-11-17T16:38:59.912Z,10.10
2022-11-17T16:41:29.750Z,10.20
2022-11-17T16:43:57.476Z,10.10
2022-11-17T16:46:26.327Z,10.10
2022-11-17T16:48:54.181Z,10.10
2022-11-17T16:51:22.344Z,10.10
2022-11-17T16:53:55.940Z,10.00
2022-11-17T16:56:23.893Z,10.00
2022-11-17T16:58:51.970Z,10.00
2022-11-17T17:01:20.481Z,9.90
2022-11-17T17:03:48.175Z,10.00
2022-11-17T17:06:16.508Z,9.90
2022-11-17T17:08:44.258Z,9.90
2022-11-17T17:11:15.081Z,9.90
2022-11-17T17:13:43.275Z,9.90
2022-11-17T17:16:11.845Z,9.90
2022-11-17T17:18:40.183Z,9.80
2022-11-17T17:21:08.524Z,9.80
2022-11-17T17:23:36.228Z,9.80
2022-11-17T17:26:04.456Z,9.80
2022-11-17T17:28:34.113Z,9.70
2022-11-17T17:31:01.965Z,9.70
2022-11-17T17:33:32.778Z,9.70
2022-11-17T17:36:02.255Z,9.70
2022-11-17T17:38:29.947Z,9.70
2022-11-17T17:40:57.619Z,9.70
2022-11-17T17:43:25.351Z,9.70
2022-11-17T17:45:59.739Z,9.70
2022-11-17T17:48:27.432Z,9.70
2022-11-17T17:50:55.089Z,9.60
2022-11-17T17:53:23.145Z,9.60
2022-11-17T17:55:50.910Z,9.60
2022-11-17T17:58:18.577Z,9.60
2022-11-17T18:00:47.279Z,9.50
2022-11-17T18:03:16.330Z,9.50
2022-11-17T18:05:44.049Z,9.50
2022-11-17T18:08:11.717Z,9.40
2022-11-17T18:10:39.401Z,9.30
2022-11-17T18:13:10.669Z,9.30
2022-11-17T18:15:39.923Z,9.30
2022-11-17T18:18:07.597Z,9.30
2022-11-17T18:20:36.621Z,9.30
2022-11-17T18:23:04.320Z,9.30
2022-11-17T18:25:33.013Z,9.30
2022-11-17T18:28:00.676Z,9.20
2022-11-17T18:30:28.369Z,9.20
2022-11-17T18:33:00.275Z,9.20
2022-11-17T18:35:30.424Z,9.10
2022-11-17T18:37:59.420Z,9.10
2022-11-17T18:40:27.069Z,9.10
2022-11-17T18:42:58.404Z,9.20
2022-11-17T18:45:26.062Z,9.20
2022-11-17T18:47:53.750Z,9.20
2022-11-17T18:50:22.435Z,9.10
2022-11-17T18:52:50.077Z,9.10
2022-11-17T18:55:19.143Z,9.20
2022-11-17T18:57:46.898Z,9.10
2022-11-17T19:00:15.046Z,9.20
2022-11-17T19:02:42.727Z,9.10
2022-11-17T19:05:10.561Z,9.10
2022-11-17T19:07:38.296Z,9.20
2022-11-17T19:10:06.277Z,9.20
2022-11-17T19:12:35.478Z,9.20
2022-11-17T19:15:03.333Z,9.20
2022-11-17T19:17:31.005Z,9.10
2022-11-17T19:19:58.702Z,9.10
2022-11-17T19:22:26.356Z,9.00
2022-11-17T19:24:54.048Z,9.00
2022-11-17T19:27:21.755Z,9.00
2022-11-17T19:29:50.771Z,9.00
2022-11-17T19:32:18.454Z,9.00
2022-11-17T19:34:46.630Z,8.90
2022-11-17T19:37:14.319Z,8.90
2022-11-17T19:39:42.037Z,8.90
2022-11-17T19:42:09.788Z,8.90
2022-11-17T19:44:37.457Z,8.90
2022-11-17T19:47:06.500Z,9.00
2022-11-17T19:49:34.198Z,9.00
2022-11-17T19:52:01.896Z,9.00
2022-11-17T19:54:29.565Z,9.00
2022-11-17T19:56:57.281Z,9.00
2022-11-17T19:59:24.950Z,9.00
2022-11-17T20:01:52.934Z,9.00
2022-11-17T20:04:21.996Z,9.00
2022-11-17T20:06:49.672Z,9.00
2022-11-17T20:09:17.582Z,9.10
2022-11-17T20:11:45.478Z,9.10
2022-11-17T20:14:14.278Z,9.10
2022-11-17T20:16:42.468Z,9.10
2022-11-17T20:19:10.193Z,9.20
2022-11-17T20:21:39.301Z,9.20
2022-11-17T20:24:07.239Z,9.20
2022-11-17T20:26:36.145Z,9.20
2022-11-17T20:29:03.813Z,9.20
2022-11-17T20:31:32.683Z,9.20
2022-11-17T20:34:00.946Z,9.10
2022-11-17T20:36:29.483Z,9.10
2022-11-17T20:39:00.104Z,9.10
2022-11-17T20:41:28.103Z,9.10
2022-11-17T20:43:56.720Z,9.00
2022-11-17T20:46:24.954Z,9.00
2022-11-17T20:48:52.907Z,8.90
2022-11-17T20:51:21.113Z,8.90
2022-11-17T20:53:49.252Z,8.90
2022-11-17T20:56:18.744Z,8.80
2022-11-17T20:58:46.593Z,8.80
2022-11-17T21:01:15.597Z,8.80
2022-11-17T21:03:43.377Z,8.90
2022-11-17T21:06:11.592Z,8.80
2022-11-17T21:08:40.972Z,8.80
2022-11-17T21:11:09.396Z,8.80
2022-11-17T21:13:38.739Z,8.80
2022-11-17T21:16:08.029Z,8.80
2022-11-17T21:18:36.312Z,8.80
2022-11-17T21:21:08.631Z,8.80
2022-11-17T21:23:36.906Z,8.90
2022-11-17T21:26:05.238Z,8.90
2022-11-17T21:28:32.980Z,8.90
2022-11-17T21:31:07.431Z,9.00
2022-11-17T21:33:35.458Z,9.10
2022-11-17T21:36:03.218Z,9.10
2022-11-17T21:38:30.956Z,9.20
2022-11-17T21:41:01.937Z,9.20
2022-11-17T21:43:29.778Z,9.30
2022-11-17T21:46:01.382Z,9.30
2022-11-17T21:48:30.449Z,9.50
2022-11-17T21:50:58.143Z,9.70
2022-11-17T21:53:25.821Z,9.90
2022-11-17T21:55:53.499Z,9.80
2022-11-17T21:58:21.194Z,9.90
2022-11-17T22:00:49.040Z,10.00
2022-11-17T22:03:16.914Z,10.20
2022-11-17T22:05:45.958Z,10.30
2022-11-17T22:08:13.929Z,10.40
2022-11-17T22:10:41.615Z,10.50
2022-11-17T22:13:09.294Z,10.50
2022-11-17T22:15:36.973Z,10.60
2022-11-17T22:18:04.743Z,10.60
2022-11-17T22:20:32.461Z,10.70
2022-11-17T22:23:01.516Z,10.70
2022-11-17T22:25:44.707Z,10.70
2022-11-17T22:28:14.620Z,10.80
2022-11-17T22:30:42.326Z,10.80
2022-11-17T22:33:10.009Z,10.80
2022-11-17T22:35:38.422Z,10.80
2022-11-17T22:38:07.461Z,10.80
2022-11-17T22:40:35.174Z,10.80
2022-11-17T22:43:04.599Z,10.80
2022-11-17T22:45:32.889Z,10.80
2022-11-17T22:48:00.568Z,10.70
2022-11-17T22:50:28.244Z,10.70
2022-11-17T22:52:56.248Z,10.70
2022-11-17T22:55:25.316Z,10.70
2022-11-17T22:57:53.019Z,10.70
2022-11-17T23:00:21.153Z,10.70
2022-11-17T23:02:48.823Z,10.70
2022-11-17T23:05:16.885Z,10.70
2022-11-17T23:07:44.692Z,10.70
2022-11-17T23:10:12.549Z,10.70
2022-11-17T23:12:41.806Z,10.60
2022-11-17T23:15:09.688Z,10.50
2022-11-17T23:17:37.375Z,10.50
2022-11-17T23:20:05.498Z,10.40
2022-11-17T23:22:33.986Z,10.40
2022-11-17T23:25:01.666Z,10.40
2022-11-17T23:27:29.364Z,10.50
2022-11-17T23:29:58.393Z,10.50
2022-11-17T23:32:26.064Z,10.60
2022-11-17T23:34:53.749Z,10.70
2022-11-17T23:37:21.412Z,10.70
2022-11-17T23:39:49.091Z,10.70
2022-11-17T23:42:16.803Z,10.70
2022-11-17T23:44:44.472Z,10.80
2022-11-17T23:47:13.520Z,10.70
2022-11-17T23:49:41.196Z,10.70
2022-11-17T23:52:08.886Z,10.80
2022-11-17T23:54:36.547Z,10.80
2022-11-17T23:57:04.337Z,10.90
2022-11-17T23:59:32.013Z,11.00
